Time;durP1;ratioP1;P1;durP2;ratioP2;P2;SDS_P1;SDS_P2;PMS_P1;PMS_P2;Temp;Humidity;BMP_temperature;BMP_pressure;BME280_temperature;BME280_humidity;BME280_pressure;Samples;Min_cycle;Max_cycle;Signal;HPM_P1;HPM_P2
2021/09/15 00:01:55;;;;;;;10.20;7.20;;;18.80;90.30;;;;;;5055603;28;20502;-67
2021/09/15 00:04:25;;;;;;;15.10;6.80;;;18.80;90.50;;;;;;5053151;28;20910;-67
2021/09/15 00:06:56;;;;;;;10.67;7.17;;;18.80;90.60;;;;;;5055487;28;20441;-66
2021/09/15 00:09:29;;;;;;;9.23;7.60;;;18.90;90.50;;;;;;5050799;28;20445;-66
2021/09/15 00:12:10;;;;;;;9.47;7.40;;;18.90;90.50;;;;;;5035484;28;20904;-66
2021/09/15 00:14:40;;;;;;;9.07;7.47;;;18.90;90.50;;;;;;5039710;28;20477;-66
2021/09/15 00:17:10;;;;;;;8.47;6.43;;;18.90;90.50;;;;;;5054994;28;20440;-67
2021/09/15 00:19:41;;;;;;;8.43;6.77;;;18.90;90.30;;;;;;5050167;28;20462;-66
2021/09/15 00:22:09;;;;;;;8.70;7.10;;;18.90;90.40;;;;;;5034852;28;20437;-66
2021/09/15 00:24:41;;;;;;;9.30;7.40;;;18.90;90.50;;;;;;5048983;28;20811;-66
2021/09/15 00:27:10;;;;;;;6.80;6.10;;;18.90;90.50;;;;;;5034839;28;20935;-66
2021/09/15 00:29:38;;;;;;;10.43;7.23;;;18.90;90.60;;;;;;5053355;28;20437;-66
2021/09/15 00:32:06;;;;;;;8.27;6.77;;;18.90;90.60;;;;;;5044966;28;20449;-66
2021/09/15 00:34:34;;;;;;;6.97;6.10;;;18.90;90.50;;;;;;5034159;28;20867;-66
2021/09/15 00:37:03;;;;;;;8.10;7.00;;;18.80;90.30;;;;;;5035891;28;20464;-66
2021/09/15 00:39:30;;;;;;;12.73;7.13;;;18.80;90.30;;;;;;5034866;28;20449;-66
2021/09/15 00:41:59;;;;;;;11.30;6.40;;;18.70;90.10;;;;;;5043371;28;20475;-66
2021/09/15 00:44:31;;;;;;;10.67;8.10;;;18.60;89.80;;;;;;5054838;28;20437;-66
2021/09/15 00:47:03;;;;;;;10.17;7.10;;;18.50;90.10;;;;;;5046404;28;20521;-67
2021/09/15 00:49:36;;;;;;;9.40;7.20;;;18.40;90.20;;;;;;5054289;28;20476;-66
2021/09/15 00:52:12;;;;;;;6.27;5.67;;;18.30;90.50;;;;;;5045694;28;20800;-66
2021/09/15 00:54:47;;;;;;;8.70;6.37;;;18.30;90.60;;;;;;5034270;28;20971;-66
2021/09/15 00:57:20;;;;;;;8.30;7.37;;;18.30;90.60;;;;;;5035010;28;20549;-66
2021/09/15 00:59:53;;;;;;;9.60;7.67;;;18.30;90.70;;;;;;5040610;28;20532;-66
2021/09/15 01:02:23;;;;;;;8.67;6.80;;;18.30;91.00;;;;;;5054071;28;20843;-66
2021/09/15 01:04:50;;;;;;;7.80;6.87;;;18.30;91.20;;;;;;5052295;28;20433;-66
2021/09/15 01:07:26;;;;;;;9.73;6.87;;;18.20;91.20;;;;;;5054090;28;20503;-66
2021/09/15 01:09:58;;;;;;;14.53;7.23;;;18.20;91.30;;;;;;5046879;28;20437;-66
2021/09/15 01:12:40;;;;;;;9.33;6.80;;;18.20;91.50;;;;;;5034027;28;20488;-66
2021/09/15 01:15:12;;;;;;;7.53;6.73;;;18.20;91.50;;;;;;5041424;28;20461;-66
2021/09/15 01:17:40;;;;;;;10.90;6.53;;;18.20;91.60;;;;;;5053539;28;20515;-66
2021/09/15 01:20:09;;;;;;;7.60;6.80;;;18.20;91.50;;;;;;5045361;28;20456;-66
2021/09/15 01:22:37;;;;;;;7.63;6.07;;;18.20;91.40;;;;;;5033781;28;20441;-66
2021/09/15 01:25:06;;;;;;;8.97;7.30;;;18.20;91.40;;;;;;5040894;28;20788;-66
2021/09/15 01:27:37;;;;;;;9.13;6.80;;;18.20;91.20;;;;;;5053772;28;20440;-66
2021/09/15 01:30:06;;;;;;;8.63;6.13;;;18.20;91.00;;;;;;5045676;28;20442;-66
2021/09/15 01:32:33;;;;;;;8.90;6.40;;;18.20;91.10;;;;;;5033508;28;20525;-66
2021/09/15 01:35:05;;;;;;;7.70;6.90;;;18.20;91.10;;;;;;5038815;28;20469;-67
2021/09/15 01:37:32;;;;;;;7.77;6.90;;;18.20;91.00;;;;;;5053655;28;20523;-66
2021/09/15 01:40:02;;;;;;;9.67;6.40;;;18.20;91.00;;;;;;5046299;28;20517;-66
2021/09/15 01:42:32;;;;;;;8.17;6.13;;;18.20;91.00;;;;;;5033425;28;20426;-66
2021/09/15 01:45:04;;;;;;;7.27;6.57;;;18.10;90.90;;;;;;5038991;28;20916;-66
2021/09/15 01:47:33;;;;;;;6.53;5.77;;;18.10;90.80;;;;;;5053318;28;20437;-66
2021/09/15 01:50:00;;;;;;;7.27;5.63;;;18.00;90.70;;;;;;5051487;28;20433;-66
2021/09/15 01:52:29;;;;;;;8.77;6.20;;;17.80;90.80;;;;;;5052955;28;20433;-66
2021/09/15 01:55:17;;;;;;;12.50;5.80;;;17.80;91.00;;;;;;5045363;28;20477;-66
2021/09/15 01:57:49;;;;;;;6.03;5.10;;;17.70;91.20;;;;;;5030651;28;20452;-66
2021/09/15 02:00:24;;;;;;;7.13;5.97;;;17.60;91.50;;;;;;5042394;28;20510;-66
2021/09/15 02:02:58;;;;;;;7.87;5.20;;;17.60;91.60;;;;;;5041065;28;20490;-66
2021/09/15 02:05:31;;;;;;;9.50;7.00;;;17.60;91.70;;;;;;5053040;28;21006;-67
2021/09/15 02:08:04;;;;;;;11.50;6.83;;;17.60;92.20;;;;;;5043982;28;20508;-66
2021/09/15 02:10:34;;;;;;;8.60;6.93;;;17.60;92.30;;;;;;5040590;28;20915;-66
2021/09/15 02:13:04;;;;;;;8.00;5.93;;;17.70;92.40;;;;;;5052804;28;20468;-66
2021/09/15 02:15:32;;;;;;;9.00;6.23;;;17.70;92.50;;;;;;5044145;28;21154;-66
2021/09/15 02:18:04;;;;;;;7.20;6.50;;;17.70;92.40;;;;;;5032327;28;20497;-66
2021/09/15 02:20:31;;;;;;;8.43;6.43;;;17.70;92.40;;;;;;5035261;28;20466;-66
2021/09/15 02:23:04;;;;;;;8.10;6.70;;;17.70;92.30;;;;;;5034640;28;20477;-65
2021/09/15 02:25:36;;;;;;;11.13;7.17;;;17.70;92.40;;;;;;5052676;28;20490;-66
2021/09/15 02:28:08;;;;;;;8.13;6.13;;;17.70;92.00;;;;;;5050271;28;20437;-66
2021/09/15 02:30:37;;;;;;;8.07;5.70;;;17.60;92.00;;;;;;5043463;28;20950;-66
2021/09/15 02:33:09;;;;;;;9.23;6.37;;;17.50;92.20;;;;;;5050118;28;20451;-66
2021/09/15 02:35:41;;;;;;;7.07;5.63;;;17.50;92.30;;;;;;5032661;28;20972;-66
2021/09/15 02:38:19;;;;;;;6.10;5.50;;;17.50;92.50;;;;;;5033758;28;20444;-66
2021/09/15 02:40:52;;;;;;;6.53;5.93;;;17.40;92.80;;;;;;5039868;28;20442;-66
2021/09/15 02:43:26;;;;;;;6.60;5.50;;;17.30;93.20;;;;;;5034670;28;21008;-65
2021/09/15 02:45:54;;;;;;;6.80;5.73;;;17.20;93.40;;;;;;5052360;28;20812;-66
2021/09/15 02:48:21;;;;;;;6.33;5.67;;;17.20;93.60;;;;;;5050311;28;20444;-66
2021/09/15 02:50:49;;;;;;;7.10;5.40;;;17.20;93.70;;;;;;5040039;28;20445;-66
2021/09/15 02:53:17;;;;;;;10.23;6.70;;;17.20;93.90;;;;;;5035121;28;20444;-66
2021/09/15 02:55:45;;;;;;;7.33;5.80;;;17.20;94.00;;;;;;5052304;28;20488;-65
2021/09/15 02:58:16;;;;;;;6.50;5.60;;;17.30;94.00;;;;;;5051281;28;20864;-66
2021/09/15 03:00:47;;;;;;;6.90;5.07;;;17.30;93.70;;;;;;5046046;28;20521;-66
2021/09/15 03:03:15;;;;;;;8.43;5.70;;;17.40;93.80;;;;;;5040245;28;20458;-66
2021/09/15 03:05:42;;;;;;;7.83;6.07;;;17.40;93.70;;;;;;5058661;28;20438;-66
2021/09/15 03:08:10;;;;;;;6.93;6.10;;;17.40;93.70;;;;;;5057896;28;20784;-66
2021/09/15 03:10:37;;;;;;;6.67;5.90;;;17.40;93.70;;;;;;5048274;28;20440;-65
2021/09/15 03:13:05;;;;;;;7.50;6.00;;;17.40;93.60;;;;;;5058863;28;20463;-66
2021/09/15 03:15:41;;;;;;;6.43;5.40;;;17.40;93.70;;;;;;5057918;28;20484;-66
2021/09/15 03:18:15;;;;;;;6.77;5.90;;;17.50;93.70;;;;;;5058109;28;20526;-65
2021/09/15 03:20:43;;;;;;;7.53;6.80;;;17.50;93.60;;;;;;5039161;28;20468;-65
2021/09/15 03:23:10;;;;;;;8.43;6.57;;;17.50;93.40;;;;;;5038484;28;20925;-65
2021/09/15 03:25:38;;;;;;;7.37;6.30;;;17.50;93.10;;;;;;5057684;28;20444;-65
2021/09/15 03:28:07;;;;;;;8.80;6.50;;;17.50;93.00;;;;;;5050431;28;20507;-66
2021/09/15 03:30:39;;;;;;;7.80;6.33;;;17.50;93.10;;;;;;5047647;28;20446;-68
2021/09/15 03:33:08;;;;;;;8.60;6.00;;;17.50;93.20;;;;;;5050413;28;20483;-67
2021/09/15 03:35:41;;;;;;;7.00;5.73;;;17.40;92.90;;;;;;5038397;28;20491;-67
2021/09/15 03:38:10;;;;;;;7.73;6.93;;;17.40;93.10;;;;;;5045331;28;20437;-67
2021/09/15 03:40:39;;;;;;;8.80;7.17;;;17.40;93.10;;;;;;5049216;28;20538;-68
2021/09/15 03:43:08;;;;;;;8.93;5.83;;;17.40;93.20;;;;;;5044541;28;20442;-67
2021/09/15 03:45:35;;;;;;;7.33;6.50;;;17.40;93.30;;;;;;5058658;28;20433;-67
2021/09/15 03:48:05;;;;;;;6.80;5.80;;;17.50;93.20;;;;;;5056276;28;20460;-67
2021/09/15 03:50:32;;;;;;;7.43;5.60;;;17.40;92.60;;;;;;5050906;28;20464;-67
2021/09/15 03:53:02;;;;;;;6.00;5.40;;;17.40;92.30;;;;;;5042567;28;20499;-68
2021/09/15 03:55:29;;;;;;;7.87;6.30;;;17.40;92.30;;;;;;5058322;28;20480;-67
2021/09/15 03:57:59;;;;;;;7.20;6.20;;;17.40;92.30;;;;;;5045125;28;20492;-67
2021/09/15 04:00:30;;;;;;;9.23;7.90;;;17.40;92.50;;;;;;5044109;28;20463;-67
2021/09/15 04:02:59;;;;;;;8.33;7.33;;;17.40;92.70;;;;;;5057172;28;20432;-67
2021/09/15 04:05:29;;;;;;;8.33;7.43;;;17.40;92.80;;;;;;5052647;28;20469;-67
2021/09/15 04:07:58;;;;;;;8.40;6.80;;;17.30;92.60;;;;;;5038722;28;20487;-66
2021/09/15 04:10:29;;;;;;;8.43;7.00;;;17.30;92.60;;;;;;5039834;28;20444;-67
2021/09/15 04:13:09;;;;;;;7.00;5.97;;;17.30;92.50;;;;;;5043766;28;20472;-68
2021/09/15 04:15:41;;;;;;;8.17;6.37;;;17.30;92.60;;;;;;5041430;28;20483;-67
2021/09/15 04:18:10;;;;;;;6.87;6.17;;;17.30;92.50;;;;;;5054696;28;20843;-67
2021/09/15 04:20:40;;;;;;;8.03;7.23;;;17.30;92.50;;;;;;5048342;28;20472;-66
2021/09/15 04:23:13;;;;;;;9.67;6.50;;;17.20;92.60;;;;;;5047153;28;20445;-65
2021/09/15 04:31:18;;;;;;;8.27;6.90;;;17.30;93.00;;;;;;5051229;28;20444;-66
2021/09/15 04:33:54;;;;;;;9.80;7.50;;;17.30;92.90;;;;;;5054732;28;20455;-65
2021/09/15 04:36:22;;;;;;;7.80;6.73;;;17.20;92.60;;;;;;5044058;28;20512;-65
2021/09/15 04:38:50;;;;;;;6.73;5.80;;;17.20;93.00;;;;;;5035000;28;20434;-65
2021/09/15 04:41:22;;;;;;;6.93;6.23;;;17.20;93.00;;;;;;5035453;28;20485;-66
2021/09/15 04:43:57;;;;;;;13.33;6.10;;;17.20;93.00;;;;;;5034794;28;20539;-66
2021/09/15 04:46:27;;;;;;;7.00;6.30;;;17.20;93.30;;;;;;5044193;28;20935;-66
2021/09/15 04:48:55;;;;;;;8.17;6.90;;;17.20;93.40;;;;;;5054869;28;20437;-66
2021/09/15 04:51:27;;;;;;;8.53;6.97;;;17.30;93.40;;;;;;5051148;28;20881;-66
2021/09/15 04:53:55;;;;;;;8.43;6.93;;;17.40;93.30;;;;;;5054692;28;20806;-66
2021/09/15 04:56:24;;;;;;;8.17;7.20;;;17.40;93.30;;;;;;5044944;28;20481;-66
2021/09/15 04:58:51;;;;;;;7.50;6.40;;;17.40;93.50;;;;;;5034692;28;20438;-66
2021/09/15 05:01:26;;;;;;;9.97;6.97;;;17.40;93.50;;;;;;5035294;28;20434;-67
2021/09/15 05:03:56;;;;;;;11.30;7.27;;;17.50;93.40;;;;;;5034504;28;20477;-66
2021/09/15 05:06:24;;;;;;;7.30;6.47;;;17.50;93.40;;;;;;5042094;28;20444;-70
2021/09/15 05:08:55;;;;;;;8.50;7.20;;;17.60;93.50;;;;;;5054302;28;20919;-66
2021/09/15 05:11:25;;;;;;;8.47;6.90;;;17.60;93.40;;;;;;5046079;28;20438;-66
2021/09/15 05:13:52;;;;;;;9.63;6.57;;;17.60;93.40;;;;;;5048307;28;20519;-67
2021/09/15 05:16:19;;;;;;;7.27;6.07;;;17.70;93.50;;;;;;5046775;28;20543;-66
2021/09/15 05:18:51;;;;;;;10.80;8.00;;;17.70;93.50;;;;;;5047842;28;20507;-66
2021/09/15 05:21:18;;;;;;;8.10;6.07;;;17.80;93.40;;;;;;5037793;28;20525;-66
2021/09/15 05:23:46;;;;;;;14.43;8.27;;;17.80;93.30;;;;;;5049662;28;20452;-66
2021/09/15 05:26:13;;;;;;;12.87;9.13;;;17.80;93.40;;;;;;5033520;28;20900;-66
2021/09/15 05:28:42;;;;;;;11.50;6.87;;;17.90;93.50;;;;;;5033692;28;20438;-67
2021/09/15 05:31:15;;;;;;;9.30;7.13;;;17.90;93.60;;;;;;5036157;28;20961;-69
2021/09/15 05:33:42;;;;;;;12.53;7.77;;;18.10;93.40;;;;;;5049173;28;20488;-66
2021/09/15 05:36:09;;;;;;;8.40;7.60;;;18.10;93.30;;;;;;5051055;28;20528;-66
2021/09/15 05:38:36;;;;;;;8.67;7.77;;;18.10;93.20;;;;;;5050366;28;20445;-66
2021/09/15 05:41:10;;;;;;;13.10;7.93;;;18.20;93.10;;;;;;5049681;28;20517;-67
2021/09/15 05:43:37;;;;;;;8.30;7.27;;;18.20;92.90;;;;;;5043811;28;20445;-67
2021/09/15 05:46:08;;;;;;;8.77;6.57;;;18.30;93.00;;;;;;5033032;28;20485;-67
2021/09/15 05:48:37;;;;;;;8.83;6.80;;;18.30;92.90;;;;;;5032945;28;20507;-66
2021/09/15 05:51:12;;;;;;;9.03;7.60;;;18.30;93.00;;;;;;5035012;28;20803;-67
2021/09/15 05:53:41;;;;;;;8.27;6.27;;;18.30;93.00;;;;;;5043218;28;20437;-66
2021/09/15 05:56:13;;;;;;;8.70;7.03;;;18.40;93.00;;;;;;5035141;28;20477;-67
2021/09/15 05:58:43;;;;;;;6.80;6.10;;;18.40;93.20;;;;;;5050559;28;20449;-66
2021/09/15 06:01:11;;;;;;;8.30;7.40;;;18.40;93.20;;;;;;5048225;28;20437;-67
2021/09/15 06:03:45;;;;;;;6.90;6.20;;;18.40;93.10;;;;;;5038876;28;20437;-66
2021/09/15 06:06:17;;;;;;;8.60;6.37;;;18.50;93.10;;;;;;5049804;28;20473;-66
2021/09/15 06:08:44;;;;;;;7.90;7.20;;;18.50;93.00;;;;;;5049998;28;20433;-69
2021/09/15 06:11:18;;;;;;;7.40;6.40;;;18.50;92.90;;;;;;5044369;28;20479;-68
2021/09/15 06:13:53;;;;;;;7.80;7.00;;;18.50;92.90;;;;;;5033572;28;20429;-67
2021/09/15 06:16:25;;;;;;;10.60;6.43;;;18.50;92.60;;;;;;5036610;28;20509;-68
2021/09/15 06:18:52;;;;;;;7.80;7.00;;;18.50;92.80;;;;;;5032255;28;20557;-67
2021/09/15 06:21:23;;;;;;;6.97;5.77;;;18.50;93.00;;;;;;5026434;28;20504;-66
2021/09/15 06:23:59;;;;;;;7.13;6.43;;;18.50;93.00;;;;;;5045625;28;20523;-67
2021/09/15 06:26:26;;;;;;;9.77;6.73;;;18.50;93.00;;;;;;5050000;28;20436;-68
2021/09/15 06:28:56;;;;;;;8.13;6.67;;;18.50;93.10;;;;;;5047131;28;20508;-68
2021/09/15 06:31:25;;;;;;;7.70;5.93;;;18.50;93.00;;;;;;5032652;28;20987;-67
2021/09/15 06:33:53;;;;;;;7.13;6.43;;;18.50;93.20;;;;;;5032805;28;20429;-67
2021/09/15 06:36:23;;;;;;;7.13;6.43;;;18.60;93.30;;;;;;5048299;28;20520;-68
2021/09/15 06:38:54;;;;;;;7.23;6.53;;;18.60;93.40;;;;;;5046365;28;20525;-67
2021/09/15 06:41:21;;;;;;;7.67;6.60;;;18.60;93.40;;;;;;5050332;28;20484;-67
2021/09/15 06:43:53;;;;;;;6.90;6.20;;;18.60;93.70;;;;;;5041430;28;21133;-67
2021/09/15 06:46:23;;;;;;;6.90;6.00;;;18.70;94.00;;;;;;5032455;28;20461;-67
2021/09/15 06:48:55;;;;;;;7.77;7.00;;;18.80;93.90;;;;;;5033061;28;20441;-67
2021/09/15 06:51:27;;;;;;;8.53;7.73;;;18.90;93.80;;;;;;5044596;28;20448;-68
2021/09/15 06:53:54;;;;;;;8.90;8.00;;;19.00;93.90;;;;;;5049530;28;20915;-67
2021/09/15 06:56:25;;;;;;;8.73;7.93;;;19.10;93.90;;;;;;5049940;28;20567;-67
2021/09/15 06:58:54;;;;;;;8.80;7.90;;;19.20;93.80;;;;;;5049573;28;20444;-67
2021/09/15 07:01:28;;;;;;;8.50;7.30;;;19.30;93.40;;;;;;5049846;28;20476;-67
2021/09/15 07:03:55;;;;;;;7.80;6.63;;;19.30;93.30;;;;;;5049990;28;20433;-67
2021/09/15 07:06:24;;;;;;;9.37;6.87;;;19.50;93.40;;;;;;5049700;28;20441;-67
2021/09/15 07:08:51;;;;;;;11.33;7.20;;;19.60;93.30;;;;;;5049939;28;20916;-67
2021/09/15 07:11:23;;;;;;;8.70;7.90;;;19.80;93.20;;;;;;5050216;28;20437;-67
2021/09/15 07:13:50;;;;;;;9.00;7.20;;;20.00;93.00;;;;;;5050288;28;20463;-68
2021/09/15 07:16:17;;;;;;;7.80;7.10;;;20.20;92.60;;;;;;5052538;28;20511;-67
2021/09/15 07:18:46;;;;;;;8.37;7.30;;;20.40;92.10;;;;;;5051929;28;20504;-68
2021/09/15 07:21:14;;;;;;;9.23;8.37;;;20.60;91.00;;;;;;5052724;28;20540;-67
2021/09/15 07:23:42;;;;;;;19.90;17.87;;;20.60;90.90;;;;;;5052270;28;20445;-67
2021/09/15 07:26:09;;;;;;;14.07;8.47;;;20.80;90.90;;;;;;5052311;28;20524;-67
2021/09/15 07:28:36;;;;;;;13.63;7.60;;;20.90;90.60;;;;;;5052470;28;20527;-67
2021/09/15 07:31:03;;;;;;;8.03;7.23;;;21.10;90.60;;;;;;5052477;28;20445;-68
2021/09/15 07:33:48;;;;;;;8.17;6.73;;;21.30;90.70;;;;;;5052561;28;20476;-68
2021/09/15 07:36:15;;;;;;;7.93;7.13;;;21.50;90.40;;;;;;5052410;28;20439;-67
2021/09/15 07:38:42;;;;;;;11.80;10.60;;;21.70;90.60;;;;;;5040034;28;20449;-67
2021/09/15 07:41:09;;;;;;;14.40;9.47;;;21.90;90.70;;;;;;5031844;28;20446;-67
2021/09/15 07:43:36;;;;;;;9.63;8.63;;;22.10;89.90;;;;;;5031752;28;20537;-67
2021/09/15 07:46:05;;;;;;;9.53;7.50;;;22.30;88.00;;;;;;5035294;28;20440;-69
2021/09/15 07:48:32;;;;;;;8.63;6.80;;;22.80;88.80;;;;;;5035742;28;20469;-68
2021/09/15 07:51:00;;;;;;;6.70;5.90;;;23.80;86.60;;;;;;5035677;28;20476;-68
2021/09/15 07:53:27;;;;;;;8.50;5.90;;;24.80;83.50;;;;;;5035639;28;20444;-68
2021/09/15 07:55:59;;;;;;;7.50;6.60;;;25.60;75.80;;;;;;5035768;28;20488;-69
2021/09/15 07:58:30;;;;;;;7.40;6.20;;;26.00;70.20;;;;;;5035451;28;20995;-69
2021/09/15 08:00:57;;;;;;;6.17;5.57;;;26.30;71.40;;;;;;5035327;28;20524;-69
2021/09/15 08:03:24;;;;;;;8.77;6.60;;;26.30;69.40;;;;;;5035373;28;20528;-68
2021/09/15 08:05:54;;;;;;;7.50;6.67;;;26.10;67.70;;;;;;5035788;28;20533;-68
2021/09/15 08:08:28;;;;;;;9.10;7.07;;;25.90;68.10;;;;;;5035413;28;20437;-68
2021/09/15 08:10:55;;;;;;;7.67;6.90;;;25.60;67.10;;;;;;5035230;28;20448;-68
2021/09/15 08:13:24;;;;;;;8.53;7.57;;;25.40;66.30;;;;;;5035382;28;20441;-67
2021/09/15 08:15:56;;;;;;;6.73;6.00;;;25.00;66.60;;;;;;5035322;28;20779;-67
2021/09/15 08:18:24;;;;;;;7.37;6.53;;;24.80;66.80;;;;;;5034787;28;20925;-68
2021/09/15 08:20:52;;;;;;;6.63;5.93;;;24.60;68.10;;;;;;5035069;28;20447;-67
2021/09/15 08:23:19;;;;;;;8.10;6.90;;;24.40;69.80;;;;;;5034920;28;20469;-67
2021/09/15 08:25:48;;;;;;;7.20;6.00;;;24.50;70.70;;;;;;5034870;28;21045;-68
2021/09/15 08:28:23;;;;;;;8.90;6.27;;;24.80;71.60;;;;;;5034827;28;20484;-67
2021/09/15 08:30:50;;;;;;;6.43;5.70;;;25.50;71.30;;;;;;5035077;28;20835;-68
2021/09/15 08:33:17;;;;;;;7.50;6.40;;;26.30;70.50;;;;;;5034766;28;20446;-69
2021/09/15 08:35:44;;;;;;;9.17;6.00;;;27.60;71.60;;;;;;5034611;28;20477;-68
2021/09/15 08:38:24;;;;;;;6.47;5.53;;;29.00;61.20;;;;;;5034324;28;20490;-68
2021/09/15 08:40:55;;;;;;;6.00;5.40;;;29.90;56.10;;;;;;5034596;28;20533;-68
2021/09/15 08:43:23;;;;;;;7.10;5.83;;;30.20;54.60;;;;;;5034729;28;20444;-68
2021/09/15 08:45:50;;;;;;;6.67;5.67;;;30.60;54.20;;;;;;5034358;28;20843;-69
2021/09/15 08:48:22;;;;;;;11.03;8.43;;;30.80;51.80;;;;;;5034471;28;20492;-69
2021/09/15 08:50:54;;;;;;;6.33;5.73;;;31.10;52.10;;;;;;5034540;28;20579;-68
2021/09/15 08:53:25;;;;;;;6.20;5.67;;;31.20;49.20;;;;;;5034343;28;20521;-69
2021/09/15 08:55:54;;;;;;;7.37;6.67;;;31.30;48.50;;;;;;5034025;28;20532;-68
2021/09/15 08:58:26;;;;;;;7.03;5.80;;;31.70;50.60;;;;;;5033976;28;20495;-69
2021/09/15 09:01:13;;;;;;;7.73;6.57;;;33.10;49.10;;;;;;5033961;28;20521;-69
2021/09/15 09:03:41;;;;;;;7.00;6.30;;;35.30;44.00;;;;;;5034148;28;20444;-66
2021/09/15 09:06:09;;;;;;;8.43;6.20;;;37.60;40.20;;;;;;5034095;28;20449;-66
2021/09/15 09:08:39;;;;;;;7.13;6.37;;;38.40;35.40;;;;;;5034174;28;20765;-67
2021/09/15 09:11:08;;;;;;;12.80;6.57;;;37.80;33.00;;;;;;5034148;28;20441;-66
2021/09/15 09:13:48;;;;;;;7.43;6.70;;;36.60;32.80;;;;;;5051091;28;20443;-67
2021/09/15 09:16:23;;;;;;;8.17;6.63;;;35.30;34.30;;;;;;5051662;28;20444;-69
2021/09/15 09:18:58;;;;;;;9.40;6.53;;;34.10;36.00;;;;;;5033384;28;20485;-68
2021/09/15 09:21:27;;;;;;;8.80;5.93;;;33.20;37.50;;;;;;5033808;28;20438;-68
2021/09/15 09:23:57;;;;;;;10.97;9.87;;;32.40;39.30;;;;;;5033454;28;20449;-70
2021/09/15 09:26:46;;;;;;;9.83;7.90;;;31.70;40.50;;;;;;5033811;28;20931;-68
2021/09/15 09:29:16;;;;;;;8.40;7.70;;;31.10;41.60;;;;;;5047478;28;20527;-68
2021/09/15 09:31:52;;;;;;;8.63;6.90;;;30.50;43.60;;;;;;5051568;28;20444;-67
2021/09/15 09:34:24;;;;;;;8.90;6.10;;;29.90;45.10;;;;;;5033408;28;20532;-68
2021/09/15 09:36:56;;;;;;;6.90;6.20;;;29.50;46.70;;;;;;5033216;28;20943;-67
2021/09/15 09:39:35;;;;;;;7.47;6.20;;;29.20;48.40;;;;;;5033604;28;20525;-68
2021/09/15 09:42:05;;;;;;;10.70;7.13;;;29.00;49.90;;;;;;5033535;28;20482;-67
2021/09/15 09:44:32;;;;;;;8.13;7.00;;;28.90;50.90;;;;;;5033036;28;20441;-68
2021/09/15 09:47:18;;;;;;;8.10;7.30;;;29.00;51.50;;;;;;5033252;28;20857;-68
2021/09/15 09:50:01;;;;;;;8.57;7.57;;;29.10;52.70;;;;;;5033362;28;20447;-68
2021/09/15 09:52:30;;;;;;;6.77;5.30;;;29.80;52.70;;;;;;5033411;28;20541;-68
2021/09/15 09:55:00;;;;;;;6.90;5.90;;;31.00;49.60;;;;;;5033190;28;20527;-68
2021/09/15 09:57:29;;;;;;;6.97;6.33;;;32.20;48.30;;;;;;5033201;28;20494;-68
2021/09/15 09:59:57;;;;;;;8.03;6.37;;;33.50;45.40;;;;;;5032997;28;20449;-69
2021/09/15 10:02:26;;;;;;;8.50;6.93;;;34.20;42.10;;;;;;5033391;28;20541;-69
2021/09/15 10:05:01;;;;;;;7.10;6.10;;;35.10;40.00;;;;;;5033732;28;20516;-68
2021/09/15 10:07:31;;;;;;;7.57;6.33;;;35.60;37.80;;;;;;5052667;28;20437;-69
2021/09/15 10:09:58;;;;;;;5.77;5.20;;;35.50;37.60;;;;;;5053113;28;20441;-68
2021/09/15 10:12:26;;;;;;;6.50;5.87;;;35.20;36.10;;;;;;5053419;28;20451;-69
2021/09/15 10:15:00;;;;;;;6.83;5.20;;;34.70;36.10;;;;;;5053272;28;20473;-68
2021/09/15 10:17:30;;;;;;;6.63;6.00;;;34.10;37.00;;;;;;5053054;28;20513;-68
2021/09/15 10:20:06;;;;;;;9.80;8.80;;;33.60;38.90;;;;;;5053469;28;20448;-68
2021/09/15 10:22:35;;;;;;;6.83;6.03;;;33.10;39.80;;;;;;5053261;28;20436;-68
2021/09/15 10:25:08;;;;;;;8.73;5.10;;;32.90;40.30;;;;;;5052861;28;20924;-68
2021/09/15 10:27:59;;;;;;;7.17;5.90;;;32.60;40.90;;;;;;5053301;28;20433;-68
2021/09/15 10:30:43;;;;;;;7.13;6.07;;;32.20;41.50;;;;;;5053025;28;20931;-68
2021/09/15 10:33:47;;;;;;;5.90;5.30;;;31.60;42.50;;;;;;5052844;28;20528;-67
2021/09/15 10:36:40;;;;;;;10.93;5.70;;;31.20;44.00;;;;;;5053342;28;20454;-68
2021/09/15 10:39:09;;;;;;;5.10;4.47;;;30.80;44.70;;;;;;5053472;28;20480;-68
2021/09/15 10:41:40;;;;;;;5.63;5.13;;;30.40;44.50;;;;;;5052892;28;20436;-68
2021/09/15 10:44:08;;;;;;;6.20;5.60;;;30.10;44.70;;;;;;5052974;28;20438;-68
2021/09/15 10:46:38;;;;;;;7.17;5.37;;;29.70;45.50;;;;;;5052893;28;20471;-67
2021/09/15 10:49:56;;;;;;;;;;;;;;;;;;;;;
2021/09/15 10:52:42;;;;;;;6.90;5.93;;;29.20;48.10;;;;;;5046796;28;20444;-68
2021/09/15 10:55:17;;;;;;;10.13;5.70;;;28.90;48.90;;;;;;5053051;28;20441;-69
2021/09/15 10:57:47;;;;;;;16.03;7.40;;;28.70;49.40;;;;;;5052859;28;20530;-68
2021/09/15 11:00:26;;;;;;;9.60;5.83;;;28.50;49.60;;;;;;5052554;28;20437;-68
2021/09/15 11:03:31;;;;;;;5.67;5.10;;;28.30;50.00;;;;;;5051919;28;20515;-68
2021/09/15 11:06:18;;;;;;;6.10;4.80;;;28.30;50.50;;;;;;5052622;28;20474;-68
2021/09/15 11:08:49;;;;;;;9.93;6.67;;;28.20;50.90;;;;;;5052413;28;20803;-68
2021/09/15 11:11:48;;;;;;;9.13;4.70;;;28.20;52.20;;;;;;5050178;28;20981;-68
2021/09/15 11:14:25;;;;;;;9.07;4.30;;;28.30;52.40;;;;;;5032621;28;20426;-68
2021/09/15 11:17:04;;;;;;;6.90;6.20;;;28.30;52.00;;;;;;5045099;28;20445;-68
2021/09/15 11:19:36;;;;;;;6.50;5.17;;;28.20;52.20;;;;;;5053039;28;20488;-68
2021/09/15 11:22:06;;;;;;;8.27;5.30;;;28.10;51.80;;;;;;5054357;28;20520;-68
2021/09/15 11:24:37;;;;;;;7.37;5.40;;;27.90;51.70;;;;;;5056383;28;20467;-67
2021/09/15 11:27:13;;;;;;;7.00;4.90;;;27.80;52.10;;;;;;5055910;28;20885;-67
2021/09/15 11:29:44;;;;;;;6.40;4.80;;;27.70;51.90;;;;;;5056068;28;20475;-68
2021/09/15 11:32:13;;;;;;;8.70;5.40;;;27.50;52.10;;;;;;5040344;28;20939;-67
2021/09/15 11:34:44;;;;;;;8.37;5.40;;;27.40;52.40;;;;;;5045407;28;20543;-68
2021/09/15 11:37:20;;;;;;;8.53;5.40;;;27.20;52.90;;;;;;5051386;28;20468;-68
2021/09/15 11:39:53;;;;;;;6.50;5.00;;;27.10;54.40;;;;;;5036355;28;20923;-67
2021/09/15 11:42:23;;;;;;;5.63;5.07;;;27.00;53.90;;;;;;5036180;28;20536;-67
2021/09/15 11:44:53;;;;;;;7.43;4.83;;;26.90;54.30;;;;;;5052114;28;20459;-67
2021/09/15 11:47:25;;;;;;;5.80;5.07;;;26.90;55.20;;;;;;5055476;28;20444;-68
2021/09/15 11:49:53;;;;;;;5.87;4.97;;;26.90;55.40;;;;;;5055829;28;20446;-68
2021/09/15 11:52:21;;;;;;;5.17;4.63;;;27.00;55.60;;;;;;5039106;28;20441;-67
2021/09/15 11:54:58;;;;;;;8.73;6.83;;;27.00;55.80;;;;;;5036077;28;20459;-68
2021/09/15 11:57:32;;;;;;;11.20;6.23;;;27.00;55.50;;;;;;5035748;28;20503;-68
2021/09/15 12:00:02;;;;;;;6.97;5.43;;;27.00;55.50;;;;;;5036135;28;20441;-68
2021/09/15 12:02:32;;;;;;;7.50;4.90;;;27.10;55.90;;;;;;5036097;28;20448;-68
2021/09/15 12:05:01;;;;;;;6.83;5.83;;;27.10;55.90;;;;;;5036239;28;20472;-67
2021/09/15 12:07:29;;;;;;;7.60;6.37;;;27.20;56.30;;;;;;5035947;28;20524;-67
2021/09/15 12:09:56;;;;;;;6.10;5.50;;;27.30;56.20;;;;;;5035678;28;20975;-68
2021/09/15 12:12:27;;;;;;;6.30;5.67;;;27.40;56.10;;;;;;5036100;28;20438;-67
2021/09/15 12:14:57;;;;;;;6.70;5.20;;;27.40;56.00;;;;;;5036071;28;20496;-67
2021/09/15 12:17:25;;;;;;;5.83;4.53;;;27.50;55.50;;;;;;5035324;28;20484;-68
2021/09/15 12:19:56;;;;;;;6.33;4.73;;;27.40;55.30;;;;;;5035503;28;20571;-68
2021/09/15 12:22:28;;;;;;;7.67;5.47;;;27.40;55.30;;;;;;5035933;28;20446;-67
2021/09/15 12:25:07;;;;;;;4.93;4.43;;;27.40;55.30;;;;;;5035698;28;20504;-68
2021/09/15 12:27:35;;;;;;;7.80;5.17;;;27.50;55.70;;;;;;5035499;28;20535;-67
2021/09/15 12:30:05;;;;;;;7.20;5.70;;;27.50;56.10;;;;;;5035676;28;20442;-67
2021/09/15 12:32:35;;;;;;;7.40;6.60;;;27.50;55.90;;;;;;5034364;28;20520;-68
2021/09/15 12:35:02;;;;;;;6.13;5.20;;;27.60;55.60;;;;;;5035313;28;20448;-68
2021/09/15 12:37:37;;;;;;;6.43;5.30;;;27.60;55.60;;;;;;5035461;28;20517;-69
2021/09/15 12:40:05;;;;;;;6.60;5.73;;;27.70;55.20;;;;;;5035478;28;20445;-68
2021/09/15 12:42:34;;;;;;;7.97;6.00;;;27.80;55.90;;;;;;5035098;28;20533;-68
2021/09/15 12:45:03;;;;;;;6.57;5.07;;;27.90;56.00;;;;;;5035219;28;20528;-68
2021/09/15 12:47:35;;;;;;;9.33;7.40;;;28.00;55.40;;;;;;5035050;28;20469;-68
2021/09/15 12:50:12;;;;;;;6.17;5.20;;;28.00;55.00;;;;;;5035108;28;20476;-68
2021/09/15 12:52:41;;;;;;;4.97;4.13;;;28.10;54.60;;;;;;5035003;28;20446;-67
2021/09/15 12:55:09;;;;;;;5.63;4.90;;;28.00;53.90;;;;;;5034936;28;20442;-68
2021/09/15 12:57:36;;;;;;;6.40;5.80;;;28.00;53.20;;;;;;5034977;28;20450;-68
2021/09/15 13:00:20;;;;;;;10.27;5.83;;;28.00;54.00;;;;;;5034517;28;20845;-67
2021/09/15 13:02:52;;;;;;;5.77;4.60;;;27.80;55.20;;;;;;5035021;28;20521;-68
2021/09/15 13:05:19;;;;;;;11.27;4.77;;;27.70;55.40;;;;;;5034810;28;20450;-67
2021/09/15 13:07:47;;;;;;;11.17;5.07;;;27.60;55.50;;;;;;5034664;28;20449;-68
2021/09/15 13:10:14;;;;;;;7.73;6.00;;;27.50;55.40;;;;;;5042935;28;20536;-69
2021/09/15 13:12:41;;;;;;;7.83;5.53;;;27.40;55.90;;;;;;5054513;28;20444;-67